createdAt,value
2023-05-18T00:00:00.009Z,8.40
2023-05-18T00:15:03.060Z,7.90
2023-05-18T00:30:06.612Z,7.60
2023-05-18T00:45:10.004Z,8.00
2023-05-18T01:00:14.125Z,7.30
2023-05-18T01:15:20.000Z,6.80
2023-05-18T01:30:23.694Z,6.20
2023-05-18T01:45:30.262Z,6.80
2023-05-18T02:00:33.518Z,4.50
2023-05-18T02:15:36.269Z,4.40
2023-05-18T02:45:41.520Z,5.10
2023-05-18T03:00:44.483Z,4.10
2023-05-18T03:15:47.996Z,3.90
2023-05-18T03:30:50.698Z,3.80
2023-05-18T04:00:56.627Z,4.00
2023-05-18T04:31:02.667Z,4.90
2023-05-18T05:01:10.312Z,4.50
2023-05-18T05:16:13.137Z,4.10
2023-05-18T05:46:19.186Z,3.60
2023-05-18T06:01:22.198Z,3.20
2023-05-18T06:16:25.549Z,3.80
2023-05-18T06:31:30.313Z,2.80
2023-05-18T06:46:33.479Z,2.40
2023-05-18T07:01:36.953Z,3.00
2023-05-18T07:16:40.197Z,1.70
2023-05-18T07:31:43.099Z,2.20
2023-05-18T07:46:45.889Z,2.20
2023-05-18T08:01:49.397Z,2.50
2023-05-18T08:16:52.170Z,2.70
2023-05-18T08:31:55.104Z,2.00
2023-05-18T08:46:58.826Z,2.40
2023-05-18T09:02:01.875Z,2.00
2023-05-18T09:17:05.041Z,2.40
2023-05-18T09:32:10.950Z,2.00
2023-05-18T09:47:13.590Z,2.20
2023-05-18T10:02:19.449Z,1.70
2023-05-18T10:17:25.744Z,1.60
2023-05-18T10:32:30.116Z,1.10
2023-05-18T10:47:36.034Z,1.50
2023-05-18T11:02:42.727Z,1.10
2023-05-18T11:17:46.066Z,1.20
2023-05-18T11:32:52.586Z,1.00
2023-05-18T11:48:01.514Z,1.20
2023-05-18T12:03:06.515Z,1.20
2023-05-18T12:18:10.985Z,1.10
2023-05-18T12:33:13.829Z,1.30
2023-05-18T12:48:18.003Z,1.60
2023-05-18T13:03:22.927Z,1.30
2023-05-18T13:18:29.439Z,1.40
2023-05-18T13:33:34.992Z,1.40
2023-05-18T13:48:41.183Z,1.20
2023-05-18T14:19:05.811Z,1.70
2023-05-18T14:34:10.501Z,1.70
2023-05-18T14:49:18.858Z,1.70
2023-05-18T15:04:23.663Z,1.50
2023-05-18T15:19:26.460Z,1.50
2023-05-18T15:34:29.796Z,1.50
2023-05-18T15:49:32.684Z,1.60
2023-05-18T16:04:35.722Z,2.00
2023-05-18T16:19:38.352Z,1.80
2023-05-18T16:34:41.294Z,1.80
2023-05-18T16:49:45.591Z,1.80
2023-05-18T17:04:51.046Z,4.10
2023-05-18T17:19:54.588Z,1.80
2023-05-18T17:34:58.569Z,2.00
2023-05-18T17:50:01.427Z,3.20
2023-05-18T18:05:04.379Z,2.10
2023-05-18T18:20:08.048Z,2.20
2023-05-18T18:35:10.943Z,2.00
2023-05-18T18:50:13.696Z,2.90
2023-05-18T19:05:21.614Z,2.50
2023-05-18T19:20:24.506Z,3.60
2023-05-18T20:05:33.486Z,4.50
2023-05-18T20:20:36.319Z,4.20
2023-05-18T20:35:40.927Z,7.10
2023-05-18T20:50:44.236Z,5.10
2023-05-18T21:05:49.624Z,4.60
2023-05-18T21:20:54.906Z,4.90
2023-05-18T21:35:59.267Z,5.30
2023-05-18T21:51:03.888Z,5.90
2023-05-18T22:06:06.719Z,5.60
2023-05-18T22:51:15.661Z,6.30
2023-05-18T23:06:22.091Z,7.30
2023-05-18T23:21:24.756Z,5.90
2023-05-18T23:36:35.052Z,5.80
2023-05-18T23:51:38.940Z,5.30
